Time;durP1;ratioP1;P1;durP2;ratioP2;P2;SDS_P1;SDS_P2;PMS_P1;PMS_P2;Temp;Humidity;BMP_temperature;BMP_pressure;BME280_temperature;BME280_humidity;BME280_pressure;Samples;Min_cycle;Max_cycle;Signal;HPM_P1;HPM_P2
2022/04/18 00:01:25;;;;;;;25.70;16.17;;;;;;;6.56;79.13;100769.17;2736933;85;21019;-88
2022/04/18 00:05:26;;;;;;;24.72;14.70;;;;;;;6.62;78.78;100767.97;2790642;83;21438;-89
2022/04/18 00:09:30;;;;;;;21.20;15.63;;;;;;;6.61;78.84;100761.81;2737038;83;21080;-87
2022/04/18 00:13:31;;;;;;;20.82;14.93;;;;;;;6.54;78.92;100758.67;2735482;85;21104;-89
2022/04/18 00:17:32;;;;;;;25.80;16.45;;;;;;;6.55;78.62;100763.50;2716064;85;21691;-88
2022/04/18 00:21:33;;;;;;;25.97;16.35;;;;;;;6.64;77.97;100755.03;2770605;83;21142;-88
2022/04/18 00:25:34;;;;;;;25.70;15.05;;;;;;;6.64;77.37;100750.22;2805722;83;21090;-88
2022/04/18 00:29:35;;;;;;;17.25;11.68;;;;;;;6.57;76.15;100747.08;2763223;84;21586;-87
2022/04/18 00:33:36;;;;;;;18.65;13.65;;;;;;;6.54;77.41;100744.62;2741350;84;21022;-87
2022/04/18 00:37:40;;;;;;;40.60;18.82;;;;;;;6.47;77.66;100738.83;2791940;84;21091;-90
2022/04/18 00:41:41;;;;;;;31.42;17.02;;;;;;;6.38;76.59;100734.92;2803048;83;21061;-87
2022/04/18 00:45:42;;;;;;;26.85;15.85;;;;;;;6.36;76.53;100739.45;2780075;83;21076;-88
2022/04/18 00:49:43;;;;;;;25.77;19.40;;;;;;;6.36;76.33;100735.48;2770289;84;21077;-88
2022/04/18 00:53:45;;;;;;;26.23;17.12;;;;;;;6.38;76.45;100734.05;2745696;84;21058;-88
2022/04/18 00:57:48;;;;;;;24.47;16.70;;;;;;;6.46;76.60;100732.30;2731255;84;21074;-88
2022/04/18 01:01:49;;;;;;;19.42;15.40;;;;;;;6.50;76.20;100728.56;2740644;84;21082;-88
2022/04/18 01:05:50;;;;;;;23.92;16.23;;;;;;;6.50;75.78;100726.75;2756728;84;20999;-88
2022/04/18 01:09:52;;;;;;;25.75;16.45;;;;;;;6.51;75.55;100721.02;2770286;83;21548;-89
2022/04/18 01:13:53;;;;;;;24.30;17.07;;;;;;;6.53;76.02;100715.16;2722359;84;21095;-88
2022/04/18 01:17:54;;;;;;;27.22;15.15;;;;;;;6.56;76.00;100711.02;2732898;85;21048;-88
2022/04/18 01:21:55;;;;;;;23.75;15.00;;;;;;;6.53;75.20;100708.06;2767363;84;21673;-88
2022/04/18 01:30:16;;;;;;;23.70;15.20;;;;;;;6.50;74.86;100696.84;2785565;83;21050;-88
2022/04/18 01:34:17;;;;;;;21.37;14.55;;;;;;;6.43;75.21;100691.06;2772450;83;21033;-89
2022/04/18 01:38:18;;;;;;;19.27;14.50;;;;;;;6.39;75.81;100686.41;2744182;84;21102;-88
2022/04/18 01:42:20;;;;;;;20.30;14.25;;;;;;;6.36;76.20;100676.02;2729656;84;22373;-87
2022/04/18 01:46:21;;;;;;;19.55;13.95;;;;;;;6.33;77.21;100678.85;2763653;83;21015;-87
2022/04/18 01:50:22;;;;;;;19.12;14.55;;;;;;;6.16;78.49;100674.52;2758493;85;21051;-87
2022/04/18 01:54:23;;;;;;;20.85;14.15;;;;;;;6.02;78.56;100675.31;2722050;83;21121;-88
2022/04/18 01:58:25;;;;;;;14.73;12.58;;;;;;;5.92;79.51;100676.75;2743722;84;21665;-88
2022/04/18 02:02:26;;;;;;;16.17;10.95;;;;;;;5.88;79.07;100675.20;2712840;85;21071;-88
2022/04/18 02:06:27;;;;;;;16.75;14.18;;;;;;;5.93;78.13;100670.53;2727163;85;21084;-87
2022/04/18 02:10:28;;;;;;;22.52;15.25;;;;;;;5.90;78.30;100670.70;2755030;84;21084;-88
2022/04/18 02:14:29;;;;;;;19.95;14.70;;;;;;;5.64;80.05;100675.17;2779274;83;21071;-88
2022/04/18 02:18:30;;;;;;;20.50;14.70;;;;;;;5.64;79.70;100670.34;2754733;84;21051;-87
2022/04/18 02:22:32;;;;;;;16.75;11.88;;;;;;;5.71;80.04;100666.45;2747355;84;21051;-88
2022/04/18 02:26:33;;;;;;;24.07;15.45;;;;;;;5.73;80.69;100667.22;2755185;83;21643;-88
2022/04/18 02:30:34;;;;;;;24.57;13.55;;;;;;;5.73;80.97;100664.58;2804919;83;21088;-88
2022/04/18 02:34:35;;;;;;;15.23;10.30;;;;;;;5.60;81.90;100662.22;2772507;83;21017;-88
2022/04/18 02:38:36;;;;;;;17.48;11.73;;;;;;;5.53;84.44;100649.38;2759627;83;21019;-90
2022/04/18 02:42:38;;;;;;;21.77;13.00;;;;;;;5.60;83.72;100646.38;2739213;84;21082;-89
2022/04/18 02:46:39;;;;;;;20.20;12.78;;;;;;;5.60;84.18;100646.38;2733230;85;21094;-89
2022/04/18 02:50:41;;;;;;;20.92;12.43;;;;;;;5.65;83.91;100639.92;2752023;84;21118;-88
2022/04/18 02:54:42;;;;;;;18.00;13.65;;;;;;;5.78;83.66;100629.52;2731068;84;21559;-88
2022/04/18 02:58:43;;;;;;;18.45;13.75;;;;;;;5.85;83.19;100634.83;2757155;84;21074;-88
2022/04/18 03:02:44;;;;;;;19.10;11.65;;;;;;;5.81;83.22;100625.38;2741926;85;21014;-87
2022/04/18 03:06:45;;;;;;;19.27;11.12;;;;;;;5.66;83.83;100625.79;2768328;84;21025;-88
2022/04/18 03:11:10;;;;;;;17.80;13.08;;;;;;;5.58;82.64;100623.57;2743613;84;21042;-88
2022/04/18 03:15:08;;;;;;;15.38;11.80;;;;;;;5.50;83.52;100627.12;2745915;84;21436;-88
2022/04/18 03:19:09;;;;;;;21.80;15.23;;;;;;;5.45;84.74;100623.02;2757862;85;21041;-88
2022/04/18 03:23:11;;;;;;;36.03;15.05;;;;;;;5.43;84.90;100622.64;2765749;84;21021;-88
2022/04/18 03:27:13;;;;;;;21.25;14.07;;;;;;;5.50;84.75;100608.64;2755102;84;21719;-88
2022/04/18 03:31:14;;;;;;;17.57;12.45;;;;;;;5.54;84.24;100610.63;2755034;84;21071;-88
2022/04/18 03:35:16;;;;;;;16.17;13.40;;;;;;;5.56;84.16;100617.98;2750089;84;22026;-89
2022/04/18 03:43:36;;;;;;;16.25;13.08;;;;;;;5.57;83.02;100612.63;2775650;83;21211;-88
2022/04/18 03:47:38;;;;;;;15.58;13.68;;;;;;;5.53;82.43;100611.11;2731022;84;21056;-89
2022/04/18 03:51:39;;;;;;;18.40;12.93;;;;;;;5.39;82.81;100609.70;2755458;84;21643;-88
2022/04/18 03:55:40;;;;;;;21.05;14.25;;;;;;;5.29;83.07;100608.86;2776833;84;21399;-87
2022/04/18 03:59:42;;;;;;;19.30;14.45;;;;;;;5.13;83.61;100602.26;2751942;84;20992;-88
2022/04/18 04:03:43;;;;;;;19.57;13.85;;;;;;;5.07;83.18;100606.55;2752753;84;21085;-88
2022/04/18 04:07:45;;;;;;;27.55;14.93;;;;;;;5.06;82.65;100606.63;2745649;85;21427;-88
2022/04/18 04:11:46;;;;;;;21.87;14.03;;;;;;;5.44;81.58;100610.28;2748781;84;21058;-87
2022/04/18 04:15:47;;;;;;;18.75;14.93;;;;;;;5.84;79.00;100610.69;2770154;84;21657;-87
2022/04/18 04:19:49;;;;;;;25.43;16.05;;;;;;;6.02;77.37;100609.28;2783343;84;21061;-89
2022/04/18 04:23:51;;;;;;;20.85;14.95;;;;;;;5.95;76.79;100609.23;2802837;83;21039;-89
2022/04/18 04:27:52;;;;;;;21.80;15.43;;;;;;;6.35;76.44;100614.88;2722725;85;21076;-89
2022/04/18 04:31:53;;;;;;;21.40;17.57;;;;;;;6.99;74.36;100623.83;2745675;84;21031;-85
2022/04/18 04:35:54;;;;;;;20.23;13.80;;;;;;;7.62;73.35;100625.27;2723918;84;21583;-90
2022/04/18 04:39:55;;;;;;;22.70;14.53;;;;;;;8.50;74.48;100632.78;2770894;84;21028;-90
2022/04/18 04:43:56;;;;;;;20.80;15.78;;;;;;;9.40;69.30;100627.06;2749142;84;21091;-89
2022/04/18 04:47:57;;;;;;;27.15;15.83;;;;;;;10.12;65.56;100626.27;2772008;84;21070;-89
2022/04/18 04:51:58;;;;;;;21.27;14.83;;;;;;;10.73;63.76;100628.89;2755007;84;21076;-87
2022/04/18 04:56:00;;;;;;;18.95;14.20;;;;;;;11.03;60.93;100636.80;2774706;83;21043;-89
2022/04/18 05:00:02;;;;;;;18.92;13.83;;;;;;;11.24;58.58;100640.43;2803526;83;21020;-89
2022/04/18 05:04:04;;;;;;;21.37;14.30;;;;;;;11.31;57.27;100650.12;2747290;84;21612;-89
2022/04/18 05:08:05;;;;;;;18.82;11.85;;;;;;;10.99;57.14;100652.98;2756668;84;21053;-89
2022/04/18 05:12:09;;;;;;;17.17;11.68;;;;;;;10.79;56.81;100645.70;2753308;84;22243;-87
2022/04/18 05:16:11;;;;;;;10.78;9.68;;;;;;;10.89;58.76;100640.52;2751323;84;21027;-90
2022/04/18 05:20:12;;;;;;;20.00;10.63;;;;;;;11.12;58.70;100642.72;2767010;83;21036;-89
2022/04/18 05:24:13;;;;;;;10.23;8.58;;;;;;;11.27;58.21;100640.19;2775868;83;22317;-89
2022/04/18 05:28:14;;;;;;;12.65;10.28;;;;;;;11.46;56.63;100636.05;2786337;83;21062;-88
2022/04/18 05:32:16;;;;;;;19.50;11.15;;;;;;;11.45;54.87;100641.02;2753788;83;21050;-89
2022/04/18 05:36:17;;;;;;;11.50;8.53;;;;;;;11.32;56.55;100640.30;2745986;84;21007;-89
2022/04/18 05:40:18;;;;;;;12.63;8.35;;;;;;;11.24;56.58;100648.42;2764346;84;21023;-88
2022/04/18 05:44:19;;;;;;;14.83;9.65;;;;;;;11.20;55.81;100645.64;2801968;83;21034;-88
2022/04/18 05:48:21;;;;;;;11.30;8.08;;;;;;;11.32;57.57;100646.48;2775091;82;21635;-89
2022/04/18 05:52:22;;;;;;;11.65;7.50;;;;;;;11.35;56.87;100650.70;2768505;83;21012;-87
2022/04/18 05:56:23;;;;;;;13.45;9.85;;;;;;;11.24;56.11;100649.75;2727064;85;21057;-88
2022/04/18 06:00:24;;;;;;;11.88;9.15;;;;;;;11.24;56.62;100644.89;2749653;84;21652;-87
2022/04/18 06:04:25;;;;;;;16.57;9.75;;;;;;;10.90;56.48;100640.41;2788716;84;21038;-87
2022/04/18 06:08:27;;;;;;;11.22;8.58;;;;;;;11.02;56.74;100647.09;2755600;84;21581;-88
2022/04/18 06:12:28;;;;;;;14.73;9.35;;;;;;;11.12;55.72;100646.71;2746600;85;21050;-88
2022/04/18 06:16:29;;;;;;;14.35;9.78;;;;;;;11.17;55.54;100638.38;2747776;84;21057;-88
2022/04/18 06:20:30;;;;;;;18.20;10.10;;;;;;;10.91;56.78;100635.45;2729619;84;21670;-88
2022/04/18 06:24:31;;;;;;;15.38;10.32;;;;;;;10.47;57.31;100633.91;2755348;84;21057;-88
2022/04/18 06:28:32;;;;;;;12.82;9.53;;;;;;;10.37;57.85;100640.37;2760115;84;21082;-88
2022/04/18 06:32:37;;;;;;;14.93;10.03;;;;;;;10.17;58.41;100631.72;2758908;84;21014;-89
2022/04/18 06:36:39;;;;;;;16.57;10.60;;;;;;;10.08;58.44;100638.09;2753758;84;21116;-88
2022/04/18 06:40:40;;;;;;;15.95;10.58;;;;;;;10.32;57.46;100635.03;2785125;84;21079;-89
2022/04/18 06:44:41;;;;;;;18.77;9.65;;;;;;;10.29;58.72;100633.47;2752584;83;21045;-89
2022/04/18 06:48:42;;;;;;;14.50;10.10;;;;;;;10.37;58.95;100634.22;2747353;83;21062;-88
2022/04/18 06:52:46;;;;;;;15.48;9.83;;;;;;;10.35;58.12;100631.66;2764356;83;21116;-88
2022/04/18 06:56:59;;;;;;;11.03;8.05;;;;;;;10.34;58.95;100632.63;2739754;85;21090;-86
2022/04/18 07:01:01;;;;;;;14.60;9.98;;;;;;;10.22;58.81;100636.20;2777683;83;21071;-88
2022/04/18 07:05:03;;;;;;;12.47;9.78;;;;;;;10.48;59.19;100640.09;2739239;84;21565;-89
2022/04/18 07:09:04;;;;;;;10.20;7.75;;;;;;;10.66;59.20;100636.02;2760587;83;21041;-89
2022/04/18 07:13:05;;;;;;;15.70;7.87;;;;;;;10.56;59.27;100633.69;2773906;84;21010;-89
2022/04/18 07:17:06;;;;;;;8.35;5.83;;;;;;;10.64;58.40;100640.62;2754038;83;21648;-88
2022/04/18 07:21:08;;;;;;;11.85;8.85;;;;;;;10.90;56.65;100641.73;2730800;85;21874;-88
2022/04/18 07:25:09;;;;;;;8.75;6.15;;;;;;;11.33;56.62;100635.33;2764501;84;21028;-89
2022/04/18 07:29:10;;;;;;;7.45;6.75;;;;;;;11.34;57.27;100633.03;2758216;84;21067;-88
2022/04/18 07:33:14;;;;;;;11.55;7.78;;;;;;;11.39;55.75;100633.50;2768396;84;21093;-90
2022/04/18 07:37:15;;;;;;;11.43;8.23;;;;;;;11.47;56.98;100627.56;2763090;84;21168;-88
2022/04/18 07:41:24;;;;;;;14.87;7.87;;;;;;;11.54;56.60;100630.94;2768760;84;21030;-89
2022/04/18 07:45:26;;;;;;;14.13;8.40;;;;;;;11.69;56.47;100623.55;2768185;84;20994;-88
2022/04/18 07:49:27;;;;;;;9.00;6.75;;;;;;;11.54;56.61;100629.61;2749883;84;21060;-87
2022/04/18 07:53:28;;;;;;;15.30;9.10;;;;;;;11.50;56.36;100629.50;2769501;84;21510;-87
2022/04/18 07:57:31;;;;;;;11.33;8.23;;;;;;;11.51;57.45;100630.36;2742133;83;21093;-88
2022/04/18 08:01:33;;;;;;;11.53;6.87;;;;;;;11.70;57.29;100635.90;2733786;85;21057;-88
2022/04/18 08:05:34;;;;;;;10.65;7.37;;;;;;;11.82;56.21;100631.38;2759885;83;21116;-85
2022/04/18 08:09:35;;;;;;;9.90;6.95;;;;;;;11.97;56.07;100637.73;2752591;84;21037;-88
2022/04/18 08:13:36;;;;;;;10.55;7.05;;;;;;;12.28;56.49;100629.91;2698204;86;21040;-88
2022/04/18 08:17:37;;;;;;;10.58;7.45;;;;;;;12.39;55.64;100625.00;2739547;85;21085;-88
2022/04/18 08:21:38;;;;;;;9.30;7.35;;;;;;;12.45;54.77;100632.47;2739870;84;21069;-89
2022/04/18 08:25:39;;;;;;;7.60;6.47;;;;;;;12.47;54.19;100624.35;2740674;84;21062;-86
2022/04/18 08:29:40;;;;;;;9.03;6.70;;;;;;;12.57;54.42;100622.58;2741070;84;21094;-87
2022/04/18 08:33:41;;;;;;;8.45;6.53;;;;;;;12.47;55.11;100615.84;2744482;84;21013;-89
2022/04/18 08:37:43;;;;;;;8.75;7.67;;;;;;;12.40;54.11;100601.34;2744297;85;21029;-89
2022/04/18 08:41:49;;;;;;;7.47;6.17;;;;;;;12.73;52.44;100613.27;2765003;84;21610;-88
2022/04/18 08:45:50;;;;;;;8.73;6.37;;;;;;;12.84;53.35;100610.53;2762129;83;21074;-87
2022/04/18 08:54:13;;;;;;;8.23;5.35;;;;;;;12.93;54.04;100614.23;2756312;83;21492;-88
2022/04/18 08:58:15;;;;;;;6.78;5.30;;;;;;;12.82;52.74;100621.33;2758195;84;21052;-86
2022/04/18 09:02:16;;;;;;;8.30;6.65;;;;;;;12.88;51.86;100601.27;2765657;83;21032;-88
2022/04/18 09:06:19;;;;;;;9.55;6.80;;;;;;;13.05;51.54;100589.11;2775264;84;21060;-87
2022/04/18 09:10:23;;;;;;;8.05;5.90;;;;;;;13.20;51.03;100596.76;2722630;83;21007;-86
2022/04/18 09:14:26;;;;;;;10.10;6.37;;;;;;;13.34;51.30;100590.19;2753103;84;21014;-88
2022/04/18 09:18:28;;;;;;;6.58;5.90;;;;;;;13.37;53.99;100582.75;2762585;85;21094;-87
2022/04/18 09:22:30;;;;;;;9.45;6.90;;;;;;;13.44;52.17;100583.09;2750752;84;21044;-88
2022/04/18 09:26:31;;;;;;;9.10;7.00;;;;;;;13.45;51.46;100574.08;2788297;83;21062;-84
2022/04/18 09:30:33;;;;;;;10.63;6.85;;;;;;;13.31;52.00;100567.28;2751538;84;21006;-88
2022/04/18 09:34:35;;;;;;;8.58;5.37;;;;;;;13.30;50.42;100564.25;2760552;84;21113;-87
2022/04/18 09:38:46;;;;;;;7.80;4.65;;;;;;;13.34;49.46;100561.66;2767137;84;21136;-87
2022/04/18 09:42:47;;;;;;;6.08;4.12;;;;;;;13.56;46.71;100553.94;2752404;85;21103;-87
2022/04/18 09:46:49;;;;;;;7.25;4.85;;;;;;;13.73;47.91;100554.20;2775131;84;21633;-85
2022/04/18 09:51:01;;;;;;;6.10;4.97;;;;;;;13.87;46.83;100550.77;2754419;84;21616;-88
2022/04/18 09:55:06;;;;;;;4.42;4.03;;;;;;;13.95;46.06;100543.73;2745414;84;21022;-85
2022/04/18 09:59:11;;;;;;;5.15;4.65;;;;;;;14.09;45.63;100534.42;2753168;84;21066;-86
2022/04/18 10:03:12;;;;;;;8.57;6.40;;;;;;;14.26;47.56;100541.37;2766005;84;21051;-84
2022/04/18 10:07:15;;;;;;;6.83;4.95;;;;;;;14.38;46.18;100532.68;2760918;84;21045;-83
2022/04/18 10:11:16;;;;;;;6.15;4.75;;;;;;;14.52;44.88;100528.69;2757581;84;21022;-85
2022/04/18 10:15:17;;;;;;;8.25;4.87;;;;;;;14.46;44.40;100533.30;2753858;85;21053;-84
2022/04/18 10:19:53;;;;;;;7.70;6.37;;;;;;;14.48;44.89;100524.14;2757266;84;21448;-85
2022/04/18 10:24:27;;;;;;;7.47;4.50;;;;;;;14.40;44.14;100515.50;2749841;84;21044;-85
2022/04/18 10:28:41;;;;;;;10.25;6.80;;;;;;;14.47;46.65;100512.23;2756324;84;21057;-85
2022/04/18 10:32:42;;;;;;;4.83;4.37;;;;;;;14.43;44.57;100513.87;2754319;84;21385;-87
2022/04/18 10:36:52;;;;;;;6.20;4.30;;;;;;;14.14;44.30;100516.10;2747505;85;21026;-86
2022/04/18 10:41:14;;;;;;;4.80;4.22;;;;;;;14.00;44.34;100505.88;2754471;85;21054;-86
2022/04/18 10:45:11;;;;;;;5.92;4.37;;;;;;;13.77;44.90;100515.53;2753810;84;21029;-87
2022/04/18 10:49:21;;;;;;;5.63;4.80;;;;;;;13.92;45.11;100494.55;2766753;84;21034;-85
2022/04/18 10:53:35;;;;;;;4.40;4.00;;;;;;;14.11;44.42;100487.48;2757112;84;21022;-86
2022/04/18 10:57:36;;;;;;;5.47;4.40;;;;;;;14.40;44.29;100494.57;2769179;83;21084;-85
2022/04/18 11:01:37;;;;;;;6.87;4.42;;;;;;;14.45;44.93;100495.48;2752972;84;21503;-86
2022/04/18 11:05:38;;;;;;;6.10;4.20;;;;;;;14.56;42.76;100481.92;2754053;84;21062;-84
2022/04/18 11:09:44;;;;;;;4.22;3.52;;;;;;;14.69;45.53;100473.04;2752582;84;21976;-86
2022/04/18 11:13:50;;;;;;;4.58;3.40;;;;;;;14.86;42.43;100477.30;2780862;83;21852;-86
2022/04/18 11:17:51;;;;;;;;;;;;;;;14.81;42.57;100479.07;2757426;85;21054;-85
2022/04/18 11:22:01;;;;;;;4.40;3.62;;;;;;;14.65;41.70;100470.32;2770247;84;20121;-87
2022/04/18 11:26:05;;;;;;;3.95;3.02;;;;;;;14.65;41.34;100466.81;2775925;83;21113;-87
2022/04/18 11:30:14;;;;;;;4.05;2.77;;;;;;;14.64;40.66;100472.65;2782442;84;30637;-84
2022/04/18 11:34:18;;;;;;;4.30;3.47;;;;;;;14.67;43.47;100464.31;2759360;84;21077;-86
2022/04/18 11:38:24;;;;;;;3.52;3.22;;;;;;;14.74;41.01;100457.05;2746991;84;21589;-85
2022/04/18 11:42:32;;;;;;;5.30;3.90;;;;;;;14.87;42.76;100450.86;2720165;85;21105;-86
2022/04/18 11:46:33;;;;;;;5.78;4.15;;;;;;;14.70;41.98;100455.16;2758708;86;21030;-85
2022/04/18 11:50:37;;;;;;;4.28;3.27;;;;;;;14.76;41.59;100441.20;2749671;83;21049;-84
2022/04/18 11:54:55;;;;;;;5.30;3.08;;;;;;;14.80;41.83;100436.39;2739969;84;21017;-85
2022/04/18 11:58:58;;;;;;;8.00;2.98;;;;;;;14.70;40.72;100436.42;2754714;84;21002;-84
2022/04/18 12:07:19;;;;;;;6.20;3.62;;;;;;;14.85;40.91;100417.55;2741161;85;21565;-84
2022/04/18 12:11:20;;;;;;;4.25;3.27;;;;;;;15.06;41.17;100408.88;2737777;84;21108;-85
2022/04/18 12:15:27;;;;;;;6.28;3.95;;;;;;;15.18;40.97;100402.30;2734817;85;21057;-84
2022/04/18 12:19:28;;;;;;;4.75;3.20;;;;;;;15.31;41.60;100402.39;2765050;84;21624;-82
2022/04/18 12:23:30;;;;;;;4.40;3.45;;;;;;;15.01;43.73;100397.78;2767947;85;21112;-84
2022/04/18 12:27:42;;;;;;;4.80;3.20;;;;;;;14.73;41.98;100403.16;2744116;84;21041;-84
2022/04/18 12:31:43;;;;;;;5.37;4.22;;;;;;;14.64;41.42;100403.05;2744785;85;21592;-84
2022/04/18 12:35:48;;;;;;;4.70;2.72;;;;;;;14.81;41.49;100394.72;2756238;85;21069;-84
2022/04/18 12:40:12;;;;;;;3.57;3.27;;;;;;;14.96;40.19;100385.69;2747554;84;21078;-84
2022/04/18 12:44:15;;;;;;;5.28;3.45;;;;;;;14.95;43.88;100385.34;2752552;85;21089;-86
2022/04/18 12:48:25;;;;;;;7.10;3.45;;;;;;;14.92;40.98;100375.42;2749276;83;21113;-87
2022/04/18 12:52:26;;;;;;;4.25;2.80;;;;;;;14.83;41.62;100365.13;2751123;85;21093;-81
2022/04/18 12:56:29;;;;;;;3.80;3.12;;;;;;;14.73;42.12;100367.88;2740011;84;21050;-83
2022/04/18 13:00:36;;;;;;;4.87;2.40;;;;;;;14.86;41.46;100354.11;2741790;84;21010;-86
2022/04/18 13:04:37;;;;;;;4.30;3.35;;;;;;;14.94;41.99;100360.90;2722925;84;21049;-91
2022/04/18 13:08:40;;;;;;;3.87;3.42;;;;;;;14.97;40.68;100357.05;2781776;84;21046;-90
2022/04/18 13:12:41;;;;;;;6.10;2.85;;;;;;;14.84;43.58;100352.08;2807333;83;21061;-84
2022/04/18 13:16:43;;;;;;;4.42;3.42;;;;;;;14.73;42.63;100346.93;2805151;83;21566;-89
2022/04/18 13:20:45;;;;;;;3.70;3.27;;;;;;;14.56;43.05;100343.56;2775172;83;21462;-83
2022/04/18 13:24:46;;;;;;;3.25;2.90;;;;;;;14.49;42.60;100340.30;2785354;84;21056;-89
2022/04/18 13:28:48;;;;;;;4.70;3.02;;;;;;;14.33;40.11;100337.77;2736239;85;21065;-91
2022/04/18 13:32:50;;;;;;;3.95;3.02;;;;;;;14.59;40.82;100323.69;2809919;83;20998;-88
2022/04/18 13:36:51;;;;;;;4.33;3.77;;;;;;;14.64;44.44;100332.10;2788003;83;21097;-89
2022/04/18 13:40:52;;;;;;;3.05;2.52;;;;;;;14.82;40.70;100324.62;2784054;84;21401;-88
2022/04/18 13:44:53;;;;;;;7.33;3.62;;;;;;;14.76;40.90;100322.56;2751013;84;21094;-91
2022/04/18 13:48:55;;;;;;;7.67;3.75;;;;;;;14.67;40.41;100311.72;2784857;84;21016;-91
2022/04/18 13:52:56;;;;;;;4.17;3.58;;;;;;;14.55;41.34;100309.76;2774735;83;21211;-90
2022/04/18 13:56:59;;;;;;;6.17;3.92;;;;;;;14.33;40.68;100308.34;2796212;84;21039;-92
2022/04/18 14:01:01;;;;;;;6.45;5.05;;;;;;;14.31;42.27;100309.50;2729051;86;21622;-90
2022/04/18 14:05:02;;;;;;;6.15;3.47;;;;;;;14.34;41.50;100297.16;2754647;84;21669;-87
2022/04/18 14:09:03;;;;;;;3.67;3.08;;;;;;;14.50;39.44;100291.98;2727440;85;21017;-86
2022/04/18 14:13:04;;;;;;;5.97;2.85;;;;;;;14.59;42.20;100295.59;2727432;85;21065;-91
2022/04/18 14:21:26;;;;;;;4.60;2.95;;;;;;;14.62;40.78;100283.23;2743920;85;21558;-86
2022/04/18 14:25:28;;;;;;;3.60;2.55;;;;;;;14.71;39.76;100285.01;2763613;83;21359;-86
2022/04/18 14:29:29;;;;;;;4.12;3.42;;;;;;;14.83;43.53;100272.74;2790878;83;21039;-85
2022/04/18 14:33:30;;;;;;;6.62;4.42;;;;;;;15.04;40.84;100263.53;2781331;83;21601;-85
2022/04/18 14:37:31;;;;;;;9.28;3.33;;;;;;;15.07;39.99;100268.58;2755812;86;21378;-85
2022/04/18 14:41:32;;;;;;;3.83;3.30;;;;;;;14.97;39.69;100271.34;2749006;85;21086;-86
2022/04/18 14:45:34;;;;;;;4.55;3.45;;;;;;;14.99;38.50;100260.83;2746007;83;21046;-84
2022/04/18 14:49:35;;;;;;;4.78;3.10;;;;;;;15.06;40.70;100254.84;2733294;85;21651;-85
2022/04/18 14:53:36;;;;;;;3.77;3.05;;;;;;;14.97;38.32;100260.63;2740339;85;21041;-86
2022/04/18 14:57:38;;;;;;;3.58;3.17;;;;;;;14.79;39.79;100256.65;2753860;85;21097;-85
2022/04/18 15:01:40;;;;;;;4.05;2.85;;;;;;;14.70;39.17;100256.52;2774972;84;21039;-86
2022/04/18 15:05:42;;;;;;;5.42;3.55;;;;;;;14.51;40.08;100254.00;2778750;84;21013;-86
2022/04/18 15:09:43;;;;;;;5.67;4.05;;;;;;;14.51;41.72;100249.98;2755701;84;21618;-87
2022/04/18 15:13:44;;;;;;;4.83;3.90;;;;;;;14.42;41.70;100244.56;2775670;84;21104;-87
2022/04/18 15:17:46;;;;;;;5.17;2.90;;;;;;;14.44;41.62;100243.06;2781973;83;22325;-86
2022/04/18 15:21:47;;;;;;;5.05;3.92;;;;;;;14.47;41.26;100242.78;2783814;83;21114;-85
2022/04/18 15:25:48;;;;;;;6.60;4.90;;;;;;;14.39;42.61;100246.22;2763179;84;21090;-87
2022/04/18 15:32:05;;;;;;;5.00;4.28;;;;;;;14.23;40.77;100246.03;2746767;84;21133;-87
2022/04/18 15:33:52;;;;;;;4.97;3.92;;;;;;;14.21;40.55;100235.47;2740314;83;21050;-86
2022/04/18 15:37:53;;;;;;;4.33;3.65;;;;;;;14.11;41.83;100240.06;2749811;85;21530;-87
2022/04/18 15:41:55;;;;;;;6.12;4.40;;;;;;;14.08;41.11;100230.49;2740751;85;21033;-85
2022/04/18 15:45:58;;;;;;;8.93;3.87;;;;;;;14.07;43.65;100227.47;2754301;84;21046;-84
2022/04/18 15:49:59;;;;;;;4.55;4.12;;;;;;;14.19;41.54;100220.08;2741756;84;21053;-84
2022/04/18 15:54:00;;;;;;;4.28;3.83;;;;;;;14.36;43.42;100231.80;2756218;85;21353;-84
2022/04/18 15:58:01;;;;;;;12.98;3.85;;;;;;;14.28;40.99;100231.22;2742407;84;21093;-83
2022/04/18 16:02:03;;;;;;;6.45;4.28;;;;;;;14.21;42.07;100227.96;2742727;85;21526;-86
2022/04/18 16:06:07;;;;;;;6.45;4.28;;;;;;;14.11;42.42;100223.50;2727609;85;21034;-87
2022/04/18 16:10:08;;;;;;;5.50;4.03;;;;;;;13.99;41.57;100220.20;2730779;86;21038;-86
2022/04/18 16:14:10;;;;;;;6.42;4.50;;;;;;;13.93;42.66;100215.94;2745045;85;21045;-85
2022/04/18 16:18:11;;;;;;;4.05;3.70;;;;;;;13.92;41.84;100211.58;2740702;83;21093;-86
2022/04/18 16:22:12;;;;;;;5.90;3.85;;;;;;;13.92;42.94;100214.25;2749107;83;21101;-84
2022/04/18 16:26:14;;;;;;;5.72;4.40;;;;;;;13.80;41.95;100208.27;2763965;84;21085;-84
2022/04/18 16:34:35;;;;;;;6.45;4.50;;;;;;;13.63;42.83;100208.58;2765877;83;21072;-85
2022/04/18 16:38:37;;;;;;;5.65;4.25;;;;;;;13.47;43.17;100214.05;2773858;83;20979;-87
2022/04/18 16:46:58;;;;;;;6.87;4.37;;;;;;;13.29;44.35;100214.78;2750271;84;22130;-86
2022/04/18 16:50:59;;;;;;;5.20;4.12;;;;;;;13.13;44.87;100217.20;2742009;85;21041;-82
2022/04/18 16:55:00;;;;;;;5.05;3.72;;;;;;;12.89;42.26;100213.19;2724669;85;21042;-82
2022/04/18 16:59:01;;;;;;;5.95;4.78;;;;;;;12.87;44.24;100211.16;2740737;84;21045;-82
2022/04/18 17:03:03;;;;;;;5.58;4.25;;;;;;;12.75;44.41;100212.28;2761494;85;21091;-87
2022/04/18 17:07:05;;;;;;;5.35;4.37;;;;;;;12.73;45.48;100211.10;2723193;85;21104;-86
2022/04/18 17:11:06;;;;;;;8.40;4.60;;;;;;;12.60;42.27;100210.06;2731391;85;21132;-86
2022/04/18 17:15:08;;;;;;;3.87;3.45;;;;;;;12.49;44.30;100202.19;2742766;86;21006;-85
2022/04/18 17:19:09;;;;;;;5.20;4.60;;;;;;;12.32;43.73;100205.89;2743562;84;21081;-87
2022/04/18 17:23:11;;;;;;;5.65;4.50;;;;;;;12.16;44.29;100209.12;2735915;84;21006;-85
2022/04/18 17:27:12;;;;;;;5.92;3.92;;;;;;;12.02;43.87;100205.50;2729133;86;21061;-85
2022/04/18 17:31:15;;;;;;;6.58;4.58;;;;;;;11.86;42.50;100213.49;2730783;86;21037;-84
2022/04/18 17:35:16;;;;;;;5.90;4.30;;;;;;;11.80;43.34;100207.39;2725486;85;21649;-85
2022/04/18 17:39:17;;;;;;;6.90;5.40;;;;;;;11.71;43.79;100207.70;2774954;83;21010;-83
2022/04/18 17:43:21;;;;;;;7.45;5.10;;;;;;;11.59;43.81;100210.96;2758973;84;21068;-85
2022/04/18 17:47:22;;;;;;;9.75;5.42;;;;;;;11.48;43.96;100210.57;2792163;83;21844;-84
2022/04/18 17:51:23;;;;;;;10.50;7.35;;;;;;;11.40;44.40;100207.75;2765784;83;21030;-84
2022/04/18 17:59:44;;;;;;;13.48;8.58;;;;;;;11.27;44.55;100210.13;2766976;84;21102;-88
2022/04/18 18:03:45;;;;;;;11.65;7.20;;;;;;;11.23;44.19;100204.72;2764202;84;21053;-87
2022/04/18 18:07:46;;;;;;;14.80;9.08;;;;;;;11.17;44.04;100199.89;2767147;83;21003;-87
2022/04/18 18:11:48;;;;;;;15.00;10.82;;;;;;;11.17;43.97;100203.89;2745112;84;21581;-87
2022/04/18 18:15:49;;;;;;;9.78;7.12;;;;;;;11.17;44.12;100209.21;2761821;84;21069;-87
2022/04/18 18:19:50;;;;;;;13.88;8.58;;;;;;;11.14;44.21;100206.82;2775507;84;21101;-86
2022/04/18 18:23:51;;;;;;;8.80;5.97;;;;;;;11.14;44.33;100205.02;2738977;84;21096;-87
2022/04/18 18:27:54;;;;;;;10.48;6.45;;;;;;;11.12;44.21;100210.96;2756583;85;21061;-87
2022/04/18 18:31:55;;;;;;;10.15;6.62;;;;;;;11.12;44.28;100215.43;2737042;85;21525;-83
2022/04/18 18:35:56;;;;;;;12.50;6.87;;;;;;;11.10;44.19;100220.90;2725614;85;21067;-84
2022/04/18 18:39:58;;;;;;;11.10;7.05;;;;;;;11.07;44.55;100217.64;2743414;85;21053;-84
2022/04/18 18:43:59;;;;;;;10.50;6.35;;;;;;;11.04;44.58;100221.41;2750341;86;21099;-82
2022/04/18 18:48:05;;;;;;;9.03;6.40;;;;;;;11.03;44.60;100221.55;2726271;85;21041;-82
2022/04/18 18:52:25;;;;;;;;;;;;;;;11.02;44.43;100221.20;2730230;85;21580;-81
2022/04/18 18:56:26;;;;;;;8.83;6.67;;;;;;;11.02;44.44;100214.55;2738346;83;20643;-83
2022/04/18 19:00:27;;;;;;;9.20;6.78;;;;;;;11.00;44.44;100217.32;2743602;85;21032;-81
2022/04/18 19:13:46;;;;;;;15.18;8.10;;;;;;;11.03;44.55;100208.24;2812994;82;21095;-83
2022/04/18 19:26:26;;;;;;;25.15;10.90;;;;;;;11.00;46.53;100194.22;2713203;84;21066;-83
2022/04/18 19:30:27;;;;;;;12.75;7.72;;;;;;;10.90;49.66;100201.29;2716832;84;21139;-84
2022/04/18 19:34:28;;;;;;;24.75;8.48;;;;;;;10.54;55.96;100194.09;2716874;85;21094;-84